sensor_id;sensor_type;location;lat;lon;timestamp;temperature;humidity
82877;DHT22;72655;47.596;7.658;2023-10-08T05:40:32;10.40;99.90
82877;DHT22;72655;47.596;7.658;2023-10-08T05:43:31;11.30;99.90
82877;DHT22;72655;47.596;7.658;2023-10-08T05:46:21;11.30;99.90
82877;DHT22;72655;47.596;7.658;2023-10-08T05:49:13;11.30;99.90
82877;DHT22;72655;47.596;7.658;2023-10-08T05:52:04;11.30;99.90
82877;DHT22;72655;47.596;7.658;2023-10-08T05:54:48;11.20;99.90
82877;DHT22;72655;47.596;7.658;2023-10-08T05:57:43;11.20;99.90
82877;DHT22;72655;47.596;7.658;2023-10-08T06:00:18;11.10;99.90
82877;DHT22;72655;47.596;7.658;2023-10-08T06:03:10;11.10;99.90
82877;DHT22;72655;47.596;7.658;2023-10-08T06:06:00;11.00;99.90
82877;DHT22;72655;47.596;7.658;2023-10-08T06:08:45;11.00;99.90
82877;DHT22;72655;47.596;7.658;2023-10-08T06:11:29;11.00;99.90
82877;DHT22;72655;47.596;7.658;2023-10-08T06:14:08;11.00;99.90
82877;DHT22;72655;47.596;7.658;2023-10-08T06:16:40;10.90;99.90
82877;DHT22;72655;47.596;7.658;2023-10-08T06:19:12;10.90;99.90
82877;DHT22;72655;47.596;7.658;2023-10-08T06:21:40;10.90;99.90
82877;DHT22;72655;47.596;7.658;2023-10-08T06:24:07;10.90;99.90
82877;DHT22;72655;47.596;7.658;2023-10-08T06:26:39;10.90;99.90
82877;DHT22;72655;47.596;7.658;2023-10-08T06:29:12;10.90;99.90
82877;DHT22;72655;47.596;7.658;2023-10-08T06:31:52;10.90;99.90
82877;DHT22;72655;47.596;7.658;2023-10-08T06:34:21;10.90;99.90
82877;DHT22;72655;47.596;7.658;2023-10-08T06:36:51;11.00;99.90
82877;DHT22;72655;47.596;7.658;2023-10-08T06:39:20;11.00;99.90
82877;DHT22;72655;47.596;7.658;2023-10-08T06:41:52;11.00;99.90
82877;DHT22;72655;47.596;7.658;2023-10-08T06:44:21;11.10;99.90
82877;DHT22;72655;47.596;7.658;2023-10-08T06:46:49;11.10;99.90
82877;DHT22;72655;47.596;7.658;2023-10-08T06:49:18;11.20;99.90
82877;DHT22;72655;47.596;7.658;2023-10-08T06:51:49;11.30;99.90
82877;DHT22;72655;47.596;7.658;2023-10-08T06:54:17;11.40;99.90
82877;DHT22;72655;47.596;7.658;2023-10-08T06:56:44;11.40;99.90
82877;DHT22;72655;47.596;7.658;2023-10-08T06:59:17;11.50;99.90
82877;DHT22;72655;47.596;7.658;2023-10-08T07:01:45;11.50;99.90
82877;DHT22;72655;47.596;7.658;2023-10-08T07:04:13;11.60;99.90
82877;DHT22;72655;47.596;7.658;2023-10-08T07:06:41;11.70;99.90
82877;DHT22;72655;47.596;7.658;2023-10-08T07:09:10;11.70;99.90
82877;DHT22;72655;47.596;7.658;2023-10-08T07:11:49;11.80;99.90
82877;DHT22;72655;47.596;7.658;2023-10-08T07:14:20;11.90;99.90
82877;DHT22;72655;47.596;7.658;2023-10-08T07:16:49;12.00;99.90
82877;DHT22;72655;47.596;7.658;2023-10-08T07:19:18;12.10;99.90
82877;DHT22;72655;47.596;7.658;2023-10-08T07:21:45;12.10;99.90
82877;DHT22;72655;47.596;7.658;2023-10-08T07:24:13;12.20;99.90
82877;DHT22;72655;47.596;7.658;2023-10-08T07:26:43;12.30;99.90
82877;DHT22;72655;47.596;7.658;2023-10-08T07:29:13;12.30;99.90
82877;DHT22;72655;47.596;7.658;2023-10-08T07:31:43;12.40;99.90
82877;DHT22;72655;47.596;7.658;2023-10-08T07:34:16;12.50;99.90
82877;DHT22;72655;47.596;7.658;2023-10-08T07:36:45;12.60;99.90
82877;DHT22;72655;47.596;7.658;2023-10-08T07:39:13;12.70;99.90
82877;DHT22;72655;47.596;7.658;2023-10-08T07:41:51;12.70;99.90
82877;DHT22;72655;47.596;7.658;2023-10-08T07:44:19;12.80;99.90
82877;DHT22;72655;47.596;7.658;2023-10-08T07:46:48;12.90;99.90
82877;DHT22;72655;47.596;7.658;2023-10-08T07:49:16;12.90;99.90
82877;DHT22;72655;47.596;7.658;2023-10-08T07:51:43;13.00;99.90
82877;DHT22;72655;47.596;7.658;2023-10-08T07:54:17;13.10;99.90
82877;DHT22;72655;47.596;7.658;2023-10-08T07:56:46;13.20;99.90
82877;DHT22;72655;47.596;7.658;2023-10-08T07:59:13;13.30;99.90
82877;DHT22;72655;47.596;7.658;2023-10-08T08:01:42;13.40;99.90
82877;DHT22;72655;47.596;7.658;2023-10-08T08:04:10;13.50;99.90
82877;DHT22;72655;47.596;7.658;2023-10-08T08:06:48;13.60;99.90
82877;DHT22;72655;47.596;7.658;2023-10-08T08:09:16;13.70;99.90
82877;DHT22;72655;47.596;7.658;2023-10-08T08:11:46;13.80;99.90
82877;DHT22;72655;47.596;7.658;2023-10-08T08:14:15;14.00;99.90
82877;DHT22;72655;47.596;7.658;2023-10-08T08:16:44;14.00;99.90
82877;DHT22;72655;47.596;7.658;2023-10-08T08:19:14;14.10;99.90
82877;DHT22;72655;47.596;7.658;2023-10-08T08:21:43;14.20;99.90
82877;DHT22;72655;47.596;7.658;2023-10-08T08:24:13;14.30;99.90
82877;DHT22;72655;47.596;7.658;2023-10-08T08:26:54;14.40;99.90
82877;DHT22;72655;47.596;7.658;2023-10-08T08:29:33;14.50;99.90
82877;DHT22;72655;47.596;7.658;2023-10-08T08:32:09;14.60;99.90
82877;DHT22;72655;47.596;7.658;2023-10-08T08:34:41;14.60;99.90
82877;DHT22;72655;47.596;7.658;2023-10-08T08:37:09;14.70;99.90
82877;DHT22;72655;47.596;7.658;2023-10-08T08:39:38;14.80;99.90
82877;DHT22;72655;47.596;7.658;2023-10-08T08:42:07;14.90;99.90
82877;DHT22;72655;47.596;7.658;2023-10-08T08:44:36;15.00;99.90
82877;DHT22;72655;47.596;7.658;2023-10-08T08:47:05;15.10;99.90
82877;DHT22;72655;47.596;7.658;2023-10-08T08:49:37;15.10;99.90
82877;DHT22;72655;47.596;7.658;2023-10-08T08:52:04;15.20;99.90
82877;DHT22;72655;47.596;7.658;2023-10-08T08:54:32;15.30;99.90
82877;DHT22;72655;47.596;7.658;2023-10-08T08:57:01;15.40;99.90
82877;DHT22;72655;47.596;7.658;2023-10-08T08:59:30;15.50;99.90
82877;DHT22;72655;47.596;7.658;2023-10-08T09:01:58;15.60;99.90
82877;DHT22;72655;47.596;7.658;2023-10-08T09:04:29;15.60;99.90
82877;DHT22;72655;47.596;7.658;2023-10-08T09:06:58;15.70;99.90
82877;DHT22;72655;47.596;7.658;2023-10-08T09:09:33;15.80;99.90
82877;DHT22;72655;47.596;7.658;2023-10-08T09:12:02;15.90;99.90
82877;DHT22;72655;47.596;7.658;2023-10-08T09:14:31;16.00;99.90
82877;DHT22;72655;47.596;7.658;2023-10-08T09:17:00;16.10;99.90
82877;DHT22;72655;47.596;7.658;2023-10-08T09:19:30;16.20;99.90
82877;DHT22;72655;47.596;7.658;2023-10-08T09:22:03;16.30;99.90
82877;DHT22;72655;47.596;7.658;2023-10-08T09:24:31;16.40;99.90
82877;DHT22;72655;47.596;7.658;2023-10-08T09:26:59;16.40;99.90
82877;DHT22;72655;47.596;7.658;2023-10-08T09:29:29;16.50;99.90
82877;DHT22;72655;47.596;7.658;2023-10-08T09:31:57;16.50;99.90
82877;DHT22;72655;47.596;7.658;2023-10-08T09:34:29;16.60;99.90
82877;DHT22;72655;47.596;7.658;2023-10-08T09:36:57;16.70;99.90
82877;DHT22;72655;47.596;7.658;2023-10-08T09:39:26;16.80;99.90
82877;DHT22;72655;47.596;7.658;2023-10-08T09:41:55;16.90;99.90
82877;DHT22;72655;47.596;7.658;2023-10-08T09:44:23;17.00;99.90
82877;DHT22;72655;47.596;7.658;2023-10-08T09:46:56;17.00;99.90
82877;DHT22;72655;47.596;7.658;2023-10-08T09:49:31;17.10;99.90
82877;DHT22;72655;47.596;7.658;2023-10-08T09:52:03;17.20;99.90
82877;DHT22;72655;47.596;7.658;2023-10-08T09:54:36;17.30;99.90
82877;DHT22;72655;47.596;7.658;2023-10-08T09:57:05;17.40;99.90
82877;DHT22;72655;47.596;7.658;2023-10-08T09:59:33;17.50;99.90
82877;DHT22;72655;47.596;7.658;2023-10-08T10:02:02;17.60;99.90
82877;DHT22;72655;47.596;7.658;2023-10-08T10:04:31;17.80;99.90
82877;DHT22;72655;47.596;7.658;2023-10-08T10:06:58;18.00;99.90
82877;DHT22;72655;47.596;7.658;2023-10-08T10:09:31;18.10;99.90
82877;DHT22;72655;47.596;7.658;2023-10-08T10:12:02;18.20;99.90
82877;DHT22;72655;47.596;7.658;2023-10-08T10:14:41;18.30;99.90
82877;DHT22;72655;47.596;7.658;2023-10-08T10:17:13;18.40;99.90
82877;DHT22;72655;47.596;7.658;2023-10-08T10:19:42;18.50;99.90
82877;DHT22;72655;47.596;7.658;2023-10-08T10:22:13;18.60;99.90
82877;DHT22;72655;47.596;7.658;2023-10-08T10:24:41;18.60;99.90
82877;DHT22;72655;47.596;7.658;2023-10-08T10:27:15;18.70;99.90
82877;DHT22;72655;47.596;7.658;2023-10-08T10:29:44;18.80;99.90
82877;DHT22;72655;47.596;7.658;2023-10-08T10:32:15;19.00;99.90
82877;DHT22;72655;47.596;7.658;2023-10-08T10:34:43;19.00;99.90
82877;DHT22;72655;47.596;7.658;2023-10-08T10:37:12;19.10;99.90
82877;DHT22;72655;47.596;7.658;2023-10-08T10:39:53;19.30;99.90
82877;DHT22;72655;47.596;7.658;2023-10-08T10:42:21;19.40;99.90
82877;DHT22;72655;47.596;7.658;2023-10-08T10:44:49;19.40;99.90
82877;DHT22;72655;47.596;7.658;2023-10-08T10:47:17;19.50;99.90
82877;DHT22;72655;47.596;7.658;2023-10-08T10:49:53;19.60;99.90
82877;DHT22;72655;47.596;7.658;2023-10-08T10:52:36;19.70;99.90
82877;DHT22;72655;47.596;7.658;2023-10-08T10:55:11;20.00;99.90
82877;DHT22;72655;47.596;7.658;2023-10-08T10:57:50;20.10;99.90
82877;DHT22;72655;47.596;7.658;2023-10-08T11:00:30;20.20;99.90
82877;DHT22;72655;47.596;7.658;2023-10-08T11:03:23;20.30;99.90
82877;DHT22;72655;47.596;7.658;2023-10-08T11:05:57;20.40;99.90
82877;DHT22;72655;47.596;7.658;2023-10-08T11:08:31;20.50;99.90
82877;DHT22;72655;47.596;7.658;2023-10-08T11:11:01;20.60;99.90
82877;DHT22;72655;47.596;7.658;2023-10-08T11:13:33;20.70;99.90
82877;DHT22;72655;47.596;7.658;2023-10-08T11:16:05;20.70;99.90
82877;DHT22;72655;47.596;7.658;2023-10-08T11:18:34;20.80;99.90
82877;DHT22;72655;47.596;7.658;2023-10-08T11:21:07;20.90;99.90
82877;DHT22;72655;47.596;7.658;2023-10-08T11:23:45;21.00;99.90
82877;DHT22;72655;47.596;7.658;2023-10-08T11:26:19;21.10;99.90
82877;DHT22;72655;47.596;7.658;2023-10-08T11:28:47;21.30;99.90
82877;DHT22;72655;47.596;7.658;2023-10-08T11:31:15;21.40;99.90
82877;DHT22;72655;47.596;7.658;2023-10-08T11:33:47;21.60;99.30
82877;DHT22;72655;47.596;7.658;2023-10-08T11:36:20;21.70;98.40
82877;DHT22;72655;47.596;7.658;2023-10-08T11:38:53;21.80;98.70
82877;DHT22;72655;47.596;7.658;2023-10-08T11:41:27;22.00;98.80
82877;DHT22;72655;47.596;7.658;2023-10-08T11:43:56;22.10;97.90
82877;DHT22;72655;47.596;7.658;2023-10-08T11:46:24;22.20;96.20
82877;DHT22;72655;47.596;7.658;2023-10-08T11:49:00;22.30;98.50
82877;DHT22;72655;47.596;7.658;2023-10-08T11:51:31;22.40;98.60
82877;DHT22;72655;47.596;7.658;2023-10-08T11:53:59;22.50;95.40
82877;DHT22;72655;47.596;7.658;2023-10-08T11:56:27;22.60;96.60
82877;DHT22;72655;47.596;7.658;2023-10-08T11:58:54;22.70;97.00
82877;DHT22;72655;47.596;7.658;2023-10-08T12:01:23;22.80;96.30
82877;DHT22;72655;47.596;7.658;2023-10-08T12:03:50;22.90;94.30
82877;DHT22;72655;47.596;7.658;2023-10-08T12:06:18;23.00;94.90
82877;DHT22;72655;47.596;7.658;2023-10-08T12:08:47;23.10;94.70
82877;DHT22;72655;47.596;7.658;2023-10-08T12:11:19;23.10;95.90
82877;DHT22;72655;47.596;7.658;2023-10-08T12:13:49;23.10;95.80
82877;DHT22;72655;47.596;7.658;2023-10-08T12:16:16;23.10;93.00
82877;DHT22;72655;47.596;7.658;2023-10-08T12:18:48;23.20;92.60
82877;DHT22;72655;47.596;7.658;2023-10-08T12:21:20;23.20;92.10
82877;DHT22;72655;47.596;7.658;2023-10-08T12:23:47;23.40;92.80
82877;DHT22;72655;47.596;7.658;2023-10-08T12:26:17;23.50;93.10
82877;DHT22;72655;47.596;7.658;2023-10-08T12:28:45;23.50;94.30
82877;DHT22;72655;47.596;7.658;2023-10-08T12:31:14;23.60;91.30
82877;DHT22;72655;47.596;7.658;2023-10-08T12:33:42;23.80;92.10
82877;DHT22;72655;47.596;7.658;2023-10-08T12:36:10;23.90;91.50
82877;DHT22;72655;47.596;7.658;2023-10-08T12:38:40;24.00;91.30
82877;DHT22;72655;47.596;7.658;2023-10-08T12:41:08;24.20;91.00
82877;DHT22;72655;47.596;7.658;2023-10-08T12:43:39;24.20;92.20
82877;DHT22;72655;47.596;7.658;2023-10-08T12:46:08;24.30;90.40
82877;DHT22;72655;47.596;7.658;2023-10-08T12:48:44;24.50;90.60
82877;DHT22;72655;47.596;7.658;2023-10-08T12:51:14;24.80;91.30
82877;DHT22;72655;47.596;7.658;2023-10-08T12:53:42;24.90;92.40
82877;DHT22;72655;47.596;7.658;2023-10-08T12:56:16;25.20;92.00
82877;DHT22;72655;47.596;7.658;2023-10-08T12:58:47;26.90;90.70
82877;DHT22;72655;47.596;7.658;2023-10-08T13:01:15;28.60;87.60
82877;DHT22;72655;47.596;7.658;2023-10-08T13:03:43;29.60;85.10
82877;DHT22;72655;47.596;7.658;2023-10-08T13:06:14;29.60;82.90
82877;DHT22;72655;47.596;7.658;2023-10-08T13:08:49;29.40;83.20
82877;DHT22;72655;47.596;7.658;2023-10-08T13:11:18;29.30;81.80
82877;DHT22;72655;47.596;7.658;2023-10-08T13:13:49;29.10;79.10
82877;DHT22;72655;47.596;7.658;2023-10-08T13:16:16;29.10;79.60
82877;DHT22;72655;47.596;7.658;2023-10-08T13:18:43;28.80;79.10
82877;DHT22;72655;47.596;7.658;2023-10-08T13:21:11;28.70;79.80
82877;DHT22;72655;47.596;7.658;2023-10-08T13:23:38;28.70;81.70
82877;DHT22;72655;47.596;7.658;2023-10-08T13:26:08;28.80;77.40
82877;DHT22;72655;47.596;7.658;2023-10-08T13:28:35;30.40;77.70
82877;DHT22;72655;47.596;7.658;2023-10-08T13:31:03;33.30;72.40
82877;DHT22;72655;47.596;7.658;2023-10-08T13:33:36;35.50;70.00
82877;DHT22;72655;47.596;7.658;2023-10-08T13:36:05;37.30;65.00
82877;DHT22;72655;47.596;7.658;2023-10-08T13:38:34;38.40;61.30
82877;DHT22;72655;47.596;7.658;2023-10-08T13:41:02;40.00;61.50
82877;DHT22;72655;47.596;7.658;2023-10-08T13:43:32;41.10;59.80
82877;DHT22;72655;47.596;7.658;2023-10-08T13:46:02;41.70;58.10
82877;DHT22;72655;47.596;7.658;2023-10-08T13:48:32;42.20;56.80
82877;DHT22;72655;47.596;7.658;2023-10-08T13:51:01;43.10;55.50
82877;DHT22;72655;47.596;7.658;2023-10-08T13:53:30;43.00;53.40
82877;DHT22;72655;47.596;7.658;2023-10-08T13:55:58;43.10;52.30
82877;DHT22;72655;47.596;7.658;2023-10-08T13:58:27;43.70;52.20
82877;DHT22;72655;47.596;7.658;2023-10-08T14:00:57;44.10;53.20
82877;DHT22;72655;47.596;7.658;2023-10-08T14:03:26;44.20;53.20
82877;DHT22;72655;47.596;7.658;2023-10-08T14:05:57;44.40;51.10
82877;DHT22;72655;47.596;7.658;2023-10-08T14:08:28;44.60;49.60
82877;DHT22;72655;47.596;7.658;2023-10-08T14:10:56;44.50;50.60
82877;DHT22;72655;47.596;7.658;2023-10-08T14:13:28;44.50;50.60
82877;DHT22;72655;47.596;7.658;2023-10-08T14:15:58;44.70;50.90
82877;DHT22;72655;47.596;7.658;2023-10-08T14:18:27;45.00;49.90
82877;DHT22;72655;47.596;7.658;2023-10-08T14:21:02;45.40;48.90
82877;DHT22;72655;47.596;7.658;2023-10-08T14:23:35;46.00;49.70
82877;DHT22;72655;47.596;7.658;2023-10-08T14:26:05;46.60;49.90
82877;DHT22;72655;47.596;7.658;2023-10-08T14:28:32;47.00;47.90
82877;DHT22;72655;47.596;7.658;2023-10-08T14:31:18;46.90;46.80
82877;DHT22;72655;47.596;7.658;2023-10-08T14:33:48;47.10;48.10
82877;DHT22;72655;47.596;7.658;2023-10-08T14:36:31;47.10;47.70
82877;DHT22;72655;47.596;7.658;2023-10-08T14:39:15;46.90;45.80
82877;DHT22;72655;47.596;7.658;2023-10-08T14:42:00;46.80;46.50
82877;DHT22;72655;47.596;7.658;2023-10-08T14:44:44;46.60;46.40
82877;DHT22;72655;47.596;7.658;2023-10-08T14:47:13;46.80;47.20
82877;DHT22;72655;47.596;7.658;2023-10-08T14:49:41;46.30;46.60
82877;DHT22;72655;47.596;7.658;2023-10-08T14:52:08;45.60;47.10
82877;DHT22;72655;47.596;7.658;2023-10-08T14:54:35;45.20;48.00
82877;DHT22;72655;47.596;7.658;2023-10-08T14:57:03;45.00;47.30
82877;DHT22;72655;47.596;7.658;2023-10-08T14:59:31;44.80;47.30
82877;DHT22;72655;47.596;7.658;2023-10-08T15:01:58;44.50;47.90
82877;DHT22;72655;47.596;7.658;2023-10-08T15:04:27;44.50;48.20
82877;DHT22;72655;47.596;7.658;2023-10-08T15:06:54;44.20;47.30
82877;DHT22;72655;47.596;7.658;2023-10-08T15:09:22;44.00;47.70
82877;DHT22;72655;47.596;7.658;2023-10-08T15:11:49;43.70;47.20
82877;DHT22;72655;47.596;7.658;2023-10-08T15:14:18;43.60;48.40
82877;DHT22;72655;47.596;7.658;2023-10-08T15:16:46;43.50;48.50
82877;DHT22;72655;47.596;7.658;2023-10-08T15:19:18;43.20;49.50
82877;DHT22;72655;47.596;7.658;2023-10-08T15:21:46;42.90;49.30
82877;DHT22;72655;47.596;7.658;2023-10-08T15:24:16;42.70;49.70
82877;DHT22;72655;47.596;7.658;2023-10-08T15:26:43;42.50;49.60
82877;DHT22;72655;47.596;7.658;2023-10-08T15:29:10;42.20;49.60
82877;DHT22;72655;47.596;7.658;2023-10-08T15:31:39;41.70;48.90
82877;DHT22;72655;47.596;7.658;2023-10-08T15:34:07;41.20;50.30
82877;DHT22;72655;47.596;7.658;2023-10-08T15:36:34;40.60;50.10
82877;DHT22;72655;47.596;7.658;2023-10-08T15:39:02;39.90;50.80
82877;DHT22;72655;47.596;7.658;2023-10-08T15:41:30;39.10;52.20
82877;DHT22;72655;47.596;7.658;2023-10-08T15:43:57;38.10;52.60
82877;DHT22;72655;47.596;7.658;2023-10-08T15:46:25;37.20;53.90
82877;DHT22;72655;47.596;7.658;2023-10-08T15:48:53;36.10;54.90
82877;DHT22;72655;47.596;7.658;2023-10-08T15:51:20;35.20;59.60
82877;DHT22;72655;47.596;7.658;2023-10-08T15:53:47;34.40;63.40
82877;DHT22;72655;47.596;7.658;2023-10-08T15:56:16;33.60;66.40
82877;DHT22;72655;47.596;7.658;2023-10-08T15:58:42;32.90;68.10
82877;DHT22;72655;47.596;7.658;2023-10-08T16:01:09;32.20;67.20
82877;DHT22;72655;47.596;7.658;2023-10-08T16:03:38;31.70;71.10
82877;DHT22;72655;47.596;7.658;2023-10-08T16:06:05;31.00;73.00
82877;DHT22;72655;47.596;7.658;2023-10-08T16:08:32;30.40;74.30
82877;DHT22;72655;47.596;7.658;2023-10-08T16:10:58;29.70;75.30
82877;DHT22;72655;47.596;7.658;2023-10-08T16:13:27;29.20;74.90
82877;DHT22;72655;47.596;7.658;2023-10-08T16:15:54;28.60;76.90
82877;DHT22;72655;47.596;7.658;2023-10-08T16:18:21;28.10;76.90
82877;DHT22;72655;47.596;7.658;2023-10-08T16:20:48;27.70;78.20
82877;DHT22;72655;47.596;7.658;2023-10-08T16:23:15;27.20;80.20
82877;DHT22;72655;47.596;7.658;2023-10-08T16:25:44;26.90;82.10
82877;DHT22;72655;47.596;7.658;2023-10-08T16:28:14;26.60;82.90
82877;DHT22;72655;47.596;7.658;2023-10-08T16:30:45;26.30;83.40
82877;DHT22;72655;47.596;7.658;2023-10-08T16:33:17;26.10;85.90
82877;DHT22;72655;47.596;7.658;2023-10-08T16:35:44;25.80;87.70
82877;DHT22;72655;47.596;7.658;2023-10-08T16:38:12;25.50;88.20
82877;DHT22;72655;47.596;7.658;2023-10-08T16:40:40;25.30;87.60
82877;DHT22;72655;47.596;7.658;2023-10-08T16:43:07;25.10;90.20
82877;DHT22;72655;47.596;7.658;2023-10-08T16:45:37;24.80;90.70
82877;DHT22;72655;47.596;7.658;2023-10-08T16:48:07;24.60;91.30
82877;DHT22;72655;47.596;7.658;2023-10-08T16:50:34;24.20;91.50
82877;DHT22;72655;47.596;7.658;2023-10-08T16:53:01;24.00;91.30
82877;DHT22;72655;47.596;7.658;2023-10-08T16:55:28;23.70;91.70
82877;DHT22;72655;47.596;7.658;2023-10-08T16:57:57;23.40;92.20
82877;DHT22;72655;47.596;7.658;2023-10-08T17:00:25;23.20;92.60
82877;DHT22;72655;47.596;7.658;2023-10-08T17:02:55;23.00;93.20
82877;DHT22;72655;47.596;7.658;2023-10-08T17:05:23;22.70;93.00
82877;DHT22;72655;47.596;7.658;2023-10-08T17:07:51;22.50;93.70
82877;DHT22;72655;47.596;7.658;2023-10-08T17:10:19;22.30;94.30
82877;DHT22;72655;47.596;7.658;2023-10-08T17:12:47;22.20;94.90
82877;DHT22;72655;47.596;7.658;2023-10-08T17:15:17;22.10;95.00
82877;DHT22;72655;47.596;7.658;2023-10-08T17:17:44;21.90;95.30
82877;DHT22;72655;47.596;7.658;2023-10-08T17:20:11;21.80;95.60
82877;DHT22;72655;47.596;7.658;2023-10-08T17:22:44;21.60;95.70
82877;DHT22;72655;47.596;7.658;2023-10-08T17:25:10;21.40;96.20
82877;DHT22;72655;47.596;7.658;2023-10-08T17:27:38;21.30;96.60
82877;DHT22;72655;47.596;7.658;2023-10-08T17:30:11;21.10;96.80
82877;DHT22;72655;47.596;7.658;2023-10-08T17:32:44;21.00;97.10
82877;DHT22;72655;47.596;7.658;2023-10-08T17:35:11;20.80;97.10
82877;DHT22;72655;47.596;7.658;2023-10-08T17:37:39;20.70;97.40
82877;DHT22;72655;47.596;7.658;2023-10-08T17:40:08;20.70;97.70
82877;DHT22;72655;47.596;7.658;2023-10-08T17:42:37;20.60;97.60
82877;DHT22;72655;47.596;7.658;2023-10-08T17:45:05;20.50;97.90
82877;DHT22;72655;47.596;7.658;2023-10-08T17:47:34;20.50;98.00
82877;DHT22;72655;47.596;7.658;2023-10-08T17:50:01;20.40;98.10
82877;DHT22;72655;47.596;7.658;2023-10-08T17:52:28;20.30;98.40
82877;DHT22;72655;47.596;7.658;2023-10-08T17:54:55;20.30;98.80
82877;DHT22;72655;47.596;7.658;2023-10-08T17:57:25;20.30;98.90
82877;DHT22;72655;47.596;7.658;2023-10-08T17:59:52;20.20;98.90
82877;DHT22;72655;47.596;7.658;2023-10-08T18:02:19;20.10;99.40
82877;DHT22;72655;47.596;7.658;2023-10-08T18:04:47;20.10;99.50
82877;DHT22;72655;47.596;7.658;2023-10-08T18:07:14;20.00;99.50
82877;DHT22;72655;47.596;7.658;2023-10-08T18:09:41;19.90;99.60
82877;DHT22;72655;47.596;7.658;2023-10-08T18:12:10;19.90;99.60
82877;DHT22;72655;47.596;7.658;2023-10-08T18:14:38;19.80;99.90
82877;DHT22;72655;47.596;7.658;2023-10-08T18:17:05;19.80;99.90
82877;DHT22;72655;47.596;7.658;2023-10-08T18:19:32;19.70;99.90
82877;DHT22;72655;47.596;7.658;2023-10-08T18:22:01;19.70;99.90
82877;DHT22;72655;47.596;7.658;2023-10-08T18:24:28;19.60;99.90
82877;DHT22;72655;47.596;7.658;2023-10-08T18:26:56;19.60;99.90
82877;DHT22;72655;47.596;7.658;2023-10-08T18:29:24;19.50;99.90
82877;DHT22;72655;47.596;7.658;2023-10-08T18:31:53;19.40;99.90
82877;DHT22;72655;47.596;7.658;2023-10-08T18:34:20;19.30;99.90
82877;DHT22;72655;47.596;7.658;2023-10-08T18:36:49;19.30;99.90
82877;DHT22;72655;47.596;7.658;2023-10-08T18:39:16;19.30;99.90
82877;DHT22;72655;47.596;7.658;2023-10-08T18:41:44;19.20;99.90
